Airfield :
LOGIN :

Register | Disclaimer

   EN    FR    IT 

 










Legend :    VFR   Marginal VFR   IFR   Intensive IFR   Very Intensive IFR
Visi :
Ceiling :
>= 8 km
>= 3000ft
5 to 8 km
1000 to 3000 ft
1500m to 5 km
500 to 1000 ft
800 to 1500m
200 to 500 ft
< 800m
< 200 ft
Symbols :   Thunderstorms  Fog  Heavy snow  Heavy precipitations  Wind > 20 kt
SIGMETs :     Misc.  Thunderstorms  Icing  Turbulence  Mountain Waves  Volcanic Ashes






- Airport Elevation : 16 ft
- IATA code : EAS


LESO - San Sebastian Fuenterrabia

CURRENT METAR :
  • 051900Z 33004KT 280V030 CAVOK 23/17 Q1022

EXPIRED METARs :
  • 051830Z 35004KT 280V050 CAVOK 23/16 Q1022
  • 051800Z 34004KT 280V060 CAVOK 23/16 Q1022
  • 051730Z 36005KT 320V060 CAVOK 24/16 Q1022
  • 051700Z 03005KT 320V080 CAVOK 24/15 Q1022
  • 051630Z 04006KT 350V070 CAVOK 24/15 Q1022

TAF TAF LESO
Valid from the 05 at 18:00 until the 06 at 18:00 UTC


051700Z 0518/0618 36005KT CAVOK TX23/0518Z TN17/0611Z
TEMPO 0519/0612 BKN010 BKN014
TEMPO 0521/0612 3000 -RADZ BKN002 BKN005



MET'MAP, your aeronautical weather chart ! - Copyright ORBIFLY December 2007 - Disclaimer

ORBIFLY MET'MAP TEAM :

Programming & Development : Alexandra Zaïnal
Concept & original design : Baudouin d'Aumeries
Assistance for programming : Marc-Olivier Méhu
Technical & hardware support : Manuel Goepfert

Contact : metmap@orbifly.com




SOURCES & CREDITS :

   NOAA